Time;durP1;ratioP1;P1;durP2;ratioP2;P2;SDS_P1;SDS_P2;PMS_P1;PMS_P2;Temp;Humidity;BMP_temperature;BMP_pressure;BME280_temperature;BME280_humidity;BME280_pressure;Samples;Min_cycle;Max_cycle;Signal;HPM_P1;HPM_P2
2021/12/25 00:01:36;;;;;;;2.13;0.47;;;-1.60;99.90;;;;;;4232959;28;20043;-86
2021/12/25 00:03:37;;;;;;;5.07;0.30;;;-1.00;99.90;;;;;;4269877;27;20145;-86
2021/12/25 00:05:40;;;;;;;3.47;0.32;;;-0.50;99.90;;;;;;4221234;28;20048;-85
2021/12/25 00:07:42;;;;;;;1.20;0.30;;;-1.10;99.90;;;;;;4235310;28;20074;-86
2021/12/25 00:09:43;;;;;;;1.20;0.60;;;-1.10;99.90;;;;;;4252946;27;20554;-86
2021/12/25 00:11:44;;;;;;;1.45;0.60;;;-1.60;99.90;;;;;;4235592;28;20375;-86
2021/12/25 00:13:46;;;;;;;3.78;0.50;;;-1.40;99.90;;;;;;4219608;28;20208;-86
2021/12/25 00:15:48;;;;;;;2.55;0.40;;;0.10;99.90;;;;;;4253300;27;20043;-86
2021/12/25 00:17:49;;;;;;;2.58;0.30;;;-0.90;99.90;;;;;;4254175;27;20043;-86
2021/12/25 00:19:58;;;;;;;8.65;0.55;;;-1.20;99.90;;;;;;4253934;27;20085;-86
2021/12/25 00:22:00;;;;;;;0.88;0.30;;;-1.20;99.90;;;;;;4234877;28;20047;-87
2021/12/25 00:24:03;;;;;;;2.28;0.43;;;-1.30;99.90;;;;;;4217455;28;20127;-86
2021/12/25 00:26:10;;;;;;;2.05;0.30;;;-1.40;99.90;;;;;;4217611;28;20570;-86
2021/12/25 00:30:34;;;;;;;0.65;0.20;;;-0.80;99.90;;;;;;4271422;27;20054;-86
2021/12/25 00:32:50;;;;;;;1.08;0.35;;;-1.40;99.90;;;;;;4270957;27;20047;-86
2021/12/25 00:34:53;;;;;;;1.08;0.50;;;-0.40;99.90;;;;;;4258854;27;20130;-86
2021/12/25 00:36:55;;;;;;;3.70;0.50;;;-1.50;99.90;;;;;;4253837;27;20380;-86
2021/12/25 00:38:58;;;;;;;3.15;0.40;;;-0.50;99.90;;;;;;4254512;27;20206;-86
2021/12/25 00:40:59;;;;;;;0.43;0.30;;;-2.20;99.90;;;;;;4254084;27;20049;-86
2021/12/25 00:43:01;;;;;;;2.60;0.30;;;-0.70;99.90;;;;;;4253840;27;20406;-86
2021/12/25 00:45:04;;;;;;;1.30;0.20;;;-1.70;99.90;;;;;;4218926;28;20044;-86
2021/12/25 00:47:06;;;;;;;1.08;0.22;;;-2.00;99.90;;;;;;4246032;27;20419;-86
2021/12/25 00:49:08;;;;;;;0.10;0.10;;;-1.70;99.90;;;;;;4270702;27;20046;-86
2021/12/25 00:51:09;;;;;;;3.22;0.63;;;-1.40;99.90;;;;;;4253511;27;20043;-86
2021/12/25 00:53:11;;;;;;;0.40;0.17;;;-2.10;99.90;;;;;;4225277;28;20059;-86
2021/12/25 00:55:14;;;;;;;0.47;0.25;;;-0.60;99.90;;;;;;4235339;28;20043;-86
2021/12/25 00:57:16;;;;;;;0.93;0.17;;;-0.60;99.90;;;;;;4254399;27;20042;-86
2021/12/25 00:59:18;;;;;;;4.22;0.40;;;-1.90;99.90;;;;;;4236102;28;20057;-85
2021/12/25 01:01:21;;;;;;;2.63;0.40;;;-0.40;99.90;;;;;;4218711;28;20054;-86
2021/12/25 01:03:21;;;;;;;2.00;0.20;;;-2.60;99.90;;;;;;4237487;28;20040;-85
2021/12/25 01:05:24;;;;;;;0.30;0.20;;;-0.90;99.90;;;;;;4265712;27;20485;-85
2021/12/25 01:07:26;;;;;;;3.50;0.40;;;-1.90;99.90;;;;;;4234417;28;20069;-86
2021/12/25 01:09:27;;;;;;;3.53;0.20;;;-1.10;99.90;;;;;;4253392;27;20035;-86
2021/12/25 01:11:32;;;;;;;0.73;0.30;;;-0.60;99.90;;;;;;4237825;27;20051;-86
2021/12/25 01:13:39;;;;;;;1.15;0.25;;;-2.00;99.90;;;;;;4236073;28;20887;-86
2021/12/25 01:22:16;;;;;;;1.55;0.30;;;-2.10;99.90;;;;;;4254351;27;20080;-85
2021/12/25 01:40:08;;;;;;;0.70;0.20;;;-1.10;99.90;;;;;;4185458;28;20527;-86
2021/12/25 01:49:15;;;;;;;0.30;0.10;;;-2.60;99.60;;;;;;4254029;27;20035;-85
2021/12/25 01:51:16;;;;;;;1.17;0.30;;;-3.20;99.80;;;;;;4255752;27;20053;-84
2021/12/25 01:53:17;;;;;;;0.35;0.10;;;-2.80;99.90;;;;;;4248529;27;20043;-85
2021/12/25 01:55:25;;;;;;;0.32;0.13;;;-2.30;99.00;;;;;;4222278;28;20079;-85
2021/12/25 01:57:34;;;;;;;2.05;0.10;;;-2.50;98.50;;;;;;4234975;28;20043;-85
2021/12/25 01:59:35;;;;;;;1.33;0.30;;;-2.50;99.20;;;;;;4238526;28;20044;-85
2021/12/25 02:01:44;;;;;;;1.90;0.10;;;-1.90;99.90;;;;;;4236075;28;20042;-84
2021/12/25 02:03:45;;;;;;;3.97;0.75;;;-2.60;99.70;;;;;;4236758;28;20050;-85
2021/12/25 02:05:50;;;;;;;1.48;0.20;;;-2.60;99.60;;;;;;4237121;28;20050;-85
2021/12/25 02:07:53;;;;;;;0.70;0.10;;;-2.20;99.90;;;;;;4236846;28;20129;-85
2021/12/25 02:09:57;;;;;;;0.82;0.28;;;-2.70;99.40;;;;;;4220191;28;20043;-84
2021/12/25 02:12:00;;;;;;;2.35;0.20;;;-2.70;98.70;;;;;;4238565;28;20047;-85
2021/12/25 02:14:04;;;;;;;0.90;0.10;;;-2.70;99.20;;;;;;4238205;28;20046;-86
2021/12/25 02:16:13;;;;;;;0.60;0.10;;;-2.80;99.70;;;;;;4237957;28;20031;-85
2021/12/25 02:18:44;;;;;;;;;;;-2.80;99.30;;;;;;4236360;28;20086;-85
2021/12/25 02:20:53;;;;;;;0.38;0.17;;;-2.60;96.20;;;;;;4238291;28;19920;-86
2021/12/25 02:23:03;;;;;;;0.30;0.10;;;-3.50;98.00;;;;;;4220189;28;20063;-85
2021/12/25 02:25:06;;;;;;;2.00;0.10;;;-1.60;97.90;;;;;;4238265;28;20044;-86
2021/12/25 02:27:07;;;;;;;0.17;0.10;;;-2.80;97.60;;;;;;4220126;28;20036;-85
2021/12/25 02:29:16;;;;;;;1.70;0.20;;;-2.00;98.10;;;;;;4247681;28;20054;-86
2021/12/25 02:31:18;;;;;;;0.13;0.10;;;-2.70;98.20;;;;;;4220000;28;20577;-86
2021/12/25 02:33:20;;;;;;;1.50;0.10;;;-2.90;97.50;;;;;;4236948;28;20040;-86
2021/12/25 02:35:24;;;;;;;0.00;0.00;;;-1.30;98.10;;;;;;4220383;28;20423;-86
2021/12/25 02:37:29;;;;;;;0.20;0.10;;;-2.90;98.10;;;;;;4220844;28;20066;-86
2021/12/25 02:39:33;;;;;;;0.20;0.00;;;-2.00;97.00;;;;;;4203797;28;20067;-86
2021/12/25 02:41:42;;;;;;;0.13;0.10;;;-1.90;96.70;;;;;;4217936;28;20107;-86
2021/12/25 02:43:46;;;;;;;0.10;0.05;;;-3.00;97.70;;;;;;4220870;28;20052;-85
2021/12/25 02:45:50;;;;;;;1.08;0.15;;;-2.30;97.80;;;;;;4238224;28;20553;-85
2021/12/25 02:47:55;;;;;;;0.65;0.10;;;-2.10;97.10;;;;;;4240628;28;20059;-86
2021/12/25 02:50:04;;;;;;;0.00;0.00;;;-2.20;97.80;;;;;;4240181;28;20087;-85
2021/12/25 02:52:10;;;;;;;0.75;0.40;;;-3.00;96.90;;;;;;4222564;28;20044;-86
2021/12/25 02:54:12;;;;;;;0.00;0.00;;;-3.90;96.00;;;;;;4223843;28;20040;-85
2021/12/25 02:56:17;;;;;;;2.90;0.10;;;-2.20;97.60;;;;;;4223842;28;20051;-86
2021/12/25 02:58:20;;;;;;;0.10;0.05;;;-3.00;96.90;;;;;;4226995;28;20213;-85
2021/12/25 03:00:31;;;;;;;2.08;0.20;;;-3.10;97.80;;;;;;4223357;28;20095;-85
2021/12/25 03:02:32;;;;;;;0.30;0.00;;;-3.00;97.60;;;;;;4241909;28;20044;-86
2021/12/25 03:04:41;;;;;;;1.75;0.10;;;-2.60;96.60;;;;;;4240052;28;20050;-86
2021/12/25 03:06:43;;;;;;;0.13;0.13;;;-2.00;96.90;;;;;;4238168;28;20051;-86
2021/12/25 03:08:46;;;;;;;0.30;0.13;;;-3.10;96.00;;;;;;4240244;28;20128;-85
2021/12/25 03:10:49;;;;;;;1.50;0.15;;;-2.20;97.70;;;;;;4215741;28;20048;-86
2021/12/25 03:13:15;;;;;;;0.15;0.10;;;-3.10;96.80;;;;;;4225853;28;20036;-86
2021/12/25 03:15:26;;;;;;;0.30;0.20;;;-2.50;97.60;;;;;;4224130;28;20052;-87
2021/12/25 03:17:31;;;;;;;2.97;0.05;;;-1.70;97.80;;;;;;4223595;28;20070;-86
2021/12/25 03:19:34;;;;;;;0.45;0.15;;;-2.30;97.50;;;;;;4224228;28;20040;-87
2021/12/25 03:21:35;;;;;;;1.10;0.17;;;-3.20;97.60;;;;;;4229128;28;20039;-87
2021/12/25 03:23:39;;;;;;;1.85;0.10;;;-3.30;97.40;;;;;;4226101;28;20044;-86
2021/12/25 03:25:43;;;;;;;0.30;0.20;;;-3.40;96.70;;;;;;4242931;28;20058;-86
2021/12/25 03:27:51;;;;;;;0.63;0.17;;;-3.30;96.40;;;;;;4241065;28;20056;-86
2021/12/25 03:30:00;;;;;;;2.30;0.20;;;-2.60;96.20;;;;;;4241132;28;20106;-87
2021/12/25 03:32:12;;;;;;;0.13;0.13;;;-3.30;96.30;;;;;;4220048;28;20047;-87
2021/12/25 03:34:14;;;;;;;0.10;0.00;;;-3.30;96.50;;;;;;4211644;28;20056;-87
2021/12/25 03:36:18;;;;;;;0.30;0.20;;;-4.00;96.50;;;;;;4207034;28;20048;-87
2021/12/25 03:38:20;;;;;;;2.20;0.20;;;-3.30;97.40;;;;;;4235527;27;20060;-86
2021/12/25 03:40:22;;;;;;;3.70;0.20;;;-3.40;96.40;;;;;;4250964;27;20526;-86
2021/12/25 03:42:23;;;;;;;0.05;0.03;;;-3.50;96.80;;;;;;4259315;27;20039;-87
2021/12/25 03:44:32;;;;;;;1.05;0.60;;;-3.40;97.20;;;;;;4240756;28;20043;-87
2021/12/25 03:46:40;;;;;;;0.30;0.10;;;-4.20;96.80;;;;;;4243194;28;20047;-87
2021/12/25 03:58:17;;;;;;;0.35;0.08;;;-3.50;96.60;;;;;;4241671;28;20051;-86
2021/12/25 04:00:28;;;;;;;0.30;0.20;;;-3.50;96.80;;;;;;4227074;28;20048;-88
2021/12/25 04:02:35;;;;;;;2.15;0.20;;;-3.50;96.60;;;;;;4258715;27;20053;-87
2021/12/25 04:04:42;;;;;;;0.63;0.00;;;-2.70;97.40;;;;;;4234704;28;20121;-87
2021/12/25 04:06:55;;;;;;;1.08;0.20;;;-3.70;97.20;;;;;;4241915;28;20159;-87
2021/12/25 04:08:58;;;;;;;0.10;0.10;;;-3.60;97.10;;;;;;4234915;28;20458;-87
2021/12/25 04:11:11;;;;;;;0.10;0.10;;;-3.60;96.90;;;;;;4258844;27;20055;-89
2021/12/25 04:13:24;;;;;;;0.40;0.13;;;-3.70;97.30;;;;;;4258709;27;20047;-87
2021/12/25 04:15:25;;;;;;;0.30;0.28;;;-3.70;97.40;;;;;;4258456;27;20066;-87
2021/12/25 04:17:29;;;;;;;1.15;0.20;;;-3.70;97.90;;;;;;4235308;28;20108;-89
2021/12/25 04:19:40;;;;;;;1.67;0.20;;;-3.10;97.70;;;;;;4251833;27;20047;-87
2021/12/25 04:22:07;;;;;;;0.32;0.10;;;-3.00;98.10;;;;;;4230925;28;20122;-87
2021/12/25 04:24:04;;;;;;;0.28;0.10;;;-2.80;98.30;;;;;;4257493;27;20047;-85
2021/12/25 04:26:06;;;;;;;0.45;0.15;;;-3.80;98.00;;;;;;4248141;28;20097;-87
2021/12/25 04:28:20;;;;;;;0.65;0.40;;;-3.90;97.80;;;;;;4240633;28;20073;-87
2021/12/25 04:30:39;;;;;;;0.70;0.10;;;-5.00;97.50;;;;;;4239877;28;20497;-85
2021/12/25 05:03:01;;;;;;;1.52;0.40;;;-3.10;97.90;;;;;;4241004;28;20063;-86
2021/12/25 05:05:13;;;;;;;1.65;0.20;;;-3.90;97.80;;;;;;4251255;27;20039;-85
2021/12/25 05:07:17;;;;;;;1.40;0.17;;;-4.40;97.90;;;;;;4241163;28;20050;-86
2021/12/25 05:09:19;;;;;;;2.10;0.20;;;-3.90;97.70;;;;;;4223011;28;20052;-86
2021/12/25 05:11:23;;;;;;;0.10;0.10;;;-3.80;98.10;;;;;;4231720;28;20094;-86
2021/12/25 05:13:27;;;;;;;0.25;0.10;;;-2.70;98.20;;;;;;4241074;27;20047;-86
2021/12/25 05:15:31;;;;;;;0.95;0.10;;;-4.00;97.80;;;;;;4234733;28;20055;-86
2021/12/25 05:17:32;;;;;;;0.28;0.00;;;-3.90;98.30;;;;;;4223739;28;20112;-86
2021/12/25 05:19:35;;;;;;;2.08;0.00;;;-2.80;98.90;;;;;;4224730;28;20481;-86
2021/12/25 05:21:37;;;;;;;1.05;0.10;;;-4.10;98.20;;;;;;4242391;27;20036;-86
2021/12/25 05:23:41;;;;;;;0.45;0.15;;;-4.20;98.40;;;;;;4230890;28;21902;-87
2021/12/25 05:25:42;;;;;;;0.20;0.20;;;-4.10;97.90;;;;;;4258313;27;20051;-86
2021/12/25 05:27:50;;;;;;;0.55;0.15;;;-4.00;98.10;;;;;;4269911;27;20035;-85
2021/12/25 05:29:54;;;;;;;0.30;0.10;;;-4.50;98.00;;;;;;4235356;28;20028;-86
2021/12/25 05:31:57;;;;;;;0.10;0.00;;;-4.10;97.90;;;;;;4234855;28;20040;-86
2021/12/25 05:34:06;;;;;;;3.03;0.25;;;-4.40;97.50;;;;;;4234938;28;20036;-86
2021/12/25 05:36:17;;;;;;;;;;;-3.10;98.60;;;;;;4251606;28;20020;-86
2021/12/25 05:38:22;;;;;;;2.28;0.10;;;-4.10;96.80;;;;;;4225606;28;19927;-86
2021/12/25 05:40:26;;;;;;;0.10;0.10;;;-3.80;97.70;;;;;;4242928;28;20035;-86
2021/12/25 05:42:29;;;;;;;1.15;0.20;;;-4.10;97.40;;;;;;4226288;28;20051;-87
2021/12/25 05:45:18;;;;;;;0.10;0.10;;;-4.00;97.60;;;;;;4226823;28;20040;-87
2021/12/25 05:47:27;;;;;;;0.40;0.10;;;-4.10;97.70;;;;;;4226853;28;20137;-86
2021/12/25 05:49:32;;;;;;;0.10;0.03;;;-4.10;97.70;;;;;;4241756;28;20032;-86
2021/12/25 05:51:45;;;;;;;1.08;0.20;;;-4.50;97.50;;;;;;4240017;28;20039;-86
2021/12/25 05:54:01;;;;;;;2.45;0.10;;;-4.00;97.90;;;;;;4239746;28;20052;-86
2021/12/25 05:56:07;;;;;;;0.10;0.10;;;-4.00;97.60;;;;;;4241786;28;20051;-87
2021/12/25 05:58:15;;;;;;;0.03;0.00;;;-3.50;98.20;;;;;;4242239;27;20042;-86
2021/12/25 06:00:17;;;;;;;2.75;0.40;;;-4.20;97.80;;;;;;4239871;28;20040;-86
2021/12/25 06:02:18;;;;;;;0.10;0.08;;;-3.40;98.10;;;;;;4239952;28;20055;-86
2021/12/25 06:04:28;;;;;;;0.38;0.10;;;-3.90;98.30;;;;;;4239461;28;20056;-86
2021/12/25 06:06:31;;;;;;;0.93;0.20;;;-4.00;98.00;;;;;;4257046;27;20138;-86
2021/12/25 06:08:42;;;;;;;0.35;0.10;;;-4.10;97.80;;;;;;4255431;27;20043;-87
2021/12/25 06:10:46;;;;;;;1.63;0.15;;;-4.10;98.40;;;;;;4232679;28;20040;-86
2021/12/25 06:12:49;;;;;;;2.38;0.40;;;-4.90;98.10;;;;;;4239008;28;20179;-86
2021/12/25 06:15:00;;;;;;;0.20;0.13;;;-4.10;98.20;;;;;;4239559;28;20050;-86
2021/12/25 06:17:04;;;;;;;0.75;0.20;;;-3.90;98.40;;;;;;4235135;28;20181;-86
2021/12/25 06:19:13;;;;;;;1.70;0.20;;;-5.20;97.50;;;;;;4223207;28;20098;-85
2021/12/25 06:21:14;;;;;;;0.40;0.10;;;-4.10;98.00;;;;;;4223726;28;20052;-85
2021/12/25 06:23:23;;;;;;;1.42;0.30;;;-4.00;98.30;;;;;;4239355;28;20051;-85
2021/12/25 06:25:28;;;;;;;0.65;0.03;;;-5.10;97.90;;;;;;4238634;28;20120;-85
2021/12/25 06:27:36;;;;;;;4.00;1.20;;;-4.10;98.10;;;;;;4247500;28;20039;-86
2021/12/25 06:29:40;;;;;;;0.30;0.20;;;-2.70;98.30;;;;;;4234682;28;20112;-85
2021/12/25 06:31:42;;;;;;;0.10;0.00;;;-4.10;97.40;;;;;;4244077;28;20494;-85
2021/12/25 06:33:44;;;;;;;0.47;0.00;;;-2.50;98.40;;;;;;4258854;28;20046;-85
2021/12/25 06:36:04;;;;;;;0.52;0.00;;;-4.50;97.80;;;;;;4244661;28;20131;-85
2021/12/25 06:38:06;;;;;;;0.88;0.30;;;-4.10;97.60;;;;;;4244099;28;20063;-85
2021/12/25 06:40:18;;;;;;;2.10;0.20;;;-4.10;97.50;;;;;;4261494;28;20054;-86
2021/12/25 06:42:30;;;;;;;0.15;0.00;;;-3.50;98.10;;;;;;4245151;28;20048;-85
2021/12/25 06:44:35;;;;;;;2.60;0.13;;;-4.20;98.20;;;;;;4243439;28;20079;-85
2021/12/25 06:46:38;;;;;;;0.22;0.17;;;-4.10;97.70;;;;;;4258152;28;20099;-85
2021/12/25 06:48:42;;;;;;;4.35;0.20;;;-4.10;97.60;;;;;;4244820;28;20052;-86
2021/12/25 06:50:44;;;;;;;0.70;0.28;;;-4.10;97.50;;;;;;4245158;28;20035;-86
2021/12/25 06:52:47;;;;;;;1.02;0.10;;;-5.30;97.70;;;;;;4244364;28;20208;-85
2021/12/25 06:54:56;;;;;;;2.38;0.10;;;-4.20;97.50;;;;;;4227296;28;20527;-85
2021/12/25 06:57:03;;;;;;;0.80;0.20;;;-5.40;97.40;;;;;;4245584;28;20075;-86
2021/12/25 06:59:05;;;;;;;2.28;0.22;;;-4.20;97.10;;;;;;4241358;28;20039;-86
2021/12/25 07:01:08;;;;;;;0.28;0.10;;;-3.20;98.00;;;;;;4240254;28;20439;-86
2021/12/25 07:03:17;;;;;;;0.30;0.10;;;-3.30;98.10;;;;;;4238048;28;20056;-86
2021/12/25 07:05:30;;;;;;;2.00;0.20;;;-4.20;98.00;;;;;;4241818;28;20047;-85
2021/12/25 07:07:36;;;;;;;1.27;0.30;;;-4.20;97.80;;;;;;4225087;28;20048;-85
2021/12/25 07:09:50;;;;;;;0.10;0.10;;;-4.30;97.80;;;;;;4242700;28;20401;-86
2021/12/25 07:11:52;;;;;;;3.10;0.30;;;-3.90;98.10;;;;;;4241062;28;20046;-86
2021/12/25 07:14:01;;;;;;;0.10;0.00;;;-3.10;98.40;;;;;;4225487;28;20040;-86
2021/12/25 07:16:13;;;;;;;0.10;0.10;;;-4.60;97.80;;;;;;4241283;28;20519;-86
2021/12/25 07:18:22;;;;;;;0.00;0.00;;;-4.40;97.90;;;;;;4243349;28;20048;-86
2021/12/25 07:20:33;;;;;;;0.20;0.20;;;-4.30;97.70;;;;;;4253497;28;20039;-87
2021/12/25 07:22:35;;;;;;;0.20;0.10;;;-4.40;98.00;;;;;;4243729;28;20083;-87
2021/12/25 07:24:55;;;;;;;0.70;0.20;;;-5.00;97.90;;;;;;4244859;28;20135;-86
2021/12/25 07:27:05;;;;;;;2.13;0.17;;;-4.30;97.90;;;;;;4228000;28;20126;-86
2021/12/25 07:29:13;;;;;;;0.20;0.20;;;-3.80;98.00;;;;;;4242822;28;20059;-86
2021/12/25 07:31:21;;;;;;;1.40;0.20;;;-4.50;98.10;;;;;;4243067;28;20044;-87
2021/12/25 07:33:24;;;;;;;0.70;0.35;;;-4.50;98.40;;;;;;4244160;28;20050;-85
2021/12/25 07:35:31;;;;;;;0.10;0.10;;;-4.50;98.00;;;;;;4245438;28;20097;-85
2021/12/25 07:37:37;;;;;;;1.67;0.22;;;-3.90;98.60;;;;;;4247227;27;20065;-86
2021/12/25 07:39:45;;;;;;;5.18;0.22;;;-4.50;98.10;;;;;;4232932;28;20055;-86
2021/12/25 07:41:56;;;;;;;0.10;0.10;;;-4.50;98.30;;;;;;4242293;28;20036;-86
2021/12/25 07:44:01;;;;;;;3.53;0.40;;;-4.50;98.10;;;;;;4243663;27;20074;-86
2021/12/25 07:46:17;;;;;;;0.30;0.22;;;-4.60;98.00;;;;;;4242571;28;20075;-84
2021/12/25 07:48:20;;;;;;;2.35;0.38;;;-4.40;98.20;;;;;;4230099;28;20043;-84
2021/12/25 07:50:23;;;;;;;0.57;0.28;;;-4.50;98.50;;;;;;4234790;28;20051;-84
2021/12/25 07:52:35;;;;;;;0.20;0.10;;;-4.60;98.20;;;;;;4245503;28;20051;-84
2021/12/25 07:54:38;;;;;;;1.83;0.20;;;-5.50;98.10;;;;;;4225937;28;20103;-85
2021/12/25 07:56:42;;;;;;;2.80;0.13;;;-4.60;98.30;;;;;;4244198;28;20077;-85
2021/12/25 07:58:46;;;;;;;0.82;0.25;;;-4.50;98.50;;;;;;4226479;28;20052;-85
2021/12/25 08:00:47;;;;;;;0.63;0.17;;;-4.60;98.40;;;;;;4224926;28;20091;-85
2021/12/25 08:02:50;;;;;;;0.10;0.10;;;-3.80;98.90;;;;;;4256930;27;20072;-85
2021/12/25 08:04:51;;;;;;;0.10;0.10;;;-4.70;98.10;;;;;;4236025;28;20048;-86
2021/12/25 08:07:03;;;;;;;1.77;0.35;;;-3.70;98.80;;;;;;4240290;28;20043;-85
2021/12/25 08:09:07;;;;;;;0.70;0.10;;;-4.50;98.30;;;;;;4225014;28;20138;-86
2021/12/25 08:11:08;;;;;;;0.65;0.30;;;-4.50;98.00;;;;;;4224617;28;20044;-86
2021/12/25 08:13:18;;;;;;;0.13;0.10;;;-4.60;98.30;;;;;;4226113;28;20040;-84
2021/12/25 08:15:29;;;;;;;3.40;0.40;;;-4.70;98.50;;;;;;4224229;28;20079;-85
2021/12/25 08:17:33;;;;;;;3.78;0.20;;;-4.70;98.00;;;;;;4225626;28;20048;-85
2021/12/25 08:19:40;;;;;;;0.50;0.10;;;-4.60;98.20;;;;;;4246718;27;20046;-85
2021/12/25 08:21:47;;;;;;;4.53;0.82;;;-5.80;97.90;;;;;;4242050;28;20107;-85
2021/12/25 08:23:58;;;;;;;0.28;0.20;;;-4.60;98.30;;;;;;4244028;28;20043;-85
2021/12/25 08:26:03;;;;;;;1.40;0.20;;;-4.70;98.30;;;;;;4225831;28;20060;-85
2021/12/25 08:28:08;;;;;;;1.05;0.20;;;-4.60;98.10;;;;;;4242106;28;20052;-85
2021/12/25 08:30:15;;;;;;;2.20;0.35;;;-4.60;97.70;;;;;;4225154;28;20048;-86
2021/12/25 08:32:16;;;;;;;1.50;0.50;;;-4.50;97.90;;;;;;4241994;28;20052;-86
2021/12/25 08:34:17;;;;;;;0.40;0.20;;;-4.20;98.10;;;;;;4228391;28;20048;-86
2021/12/25 08:36:25;;;;;;;0.35;0.10;;;-5.00;97.80;;;;;;4241617;28;20057;-86
2021/12/25 08:38:31;;;;;;;3.05;0.30;;;-3.90;97.50;;;;;;4258553;27;20047;-87
2021/12/25 08:40:38;;;;;;;0.50;0.10;;;-3.70;97.60;;;;;;4259184;27;20043;-86
2021/12/25 08:42:47;;;;;;;1.63;0.20;;;-3.70;97.20;;;;;;4259729;27;20155;-86
2021/12/25 08:47:00;;;;;;;1.10;0.20;;;-4.50;96.30;;;;;;4248954;27;20052;-86
2021/12/25 08:49:02;;;;;;;1.17;0.20;;;-4.40;96.70;;;;;;4224752;28;20416;-86
2021/12/25 08:51:11;;;;;;;1.98;0.28;;;-2.40;96.70;;;;;;4240851;28;20071;-86
2021/12/25 08:53:28;;;;;;;2.55;0.47;;;-2.70;96.10;;;;;;4251438;27;20051;-86
2021/12/25 08:55:29;;;;;;;1.35;1.05;;;-2.50;95.90;;;;;;4240133;28;20048;-86
2021/12/25 08:57:38;;;;;;;1.73;0.40;;;-2.10;95.90;;;;;;4221998;28;20085;-86
2021/12/25 08:59:51;;;;;;;4.75;0.50;;;-1.30;95.30;;;;;;4237528;28;20047;-86
2021/12/25 09:01:55;;;;;;;2.42;0.77;;;-0.60;94.30;;;;;;4246929;27;20047;-86
2021/12/25 09:03:57;;;;;;;1.27;0.40;;;0.60;94.00;;;;;;4230027;28;20068;-86
2021/12/25 09:06:01;;;;;;;5.20;1.85;;;-0.30;93.80;;;;;;4220146;28;20078;-86
2021/12/25 09:08:02;;;;;;;6.88;1.98;;;0.00;93.20;;;;;;4239250;28;20067;-86
2021/12/25 09:10:06;;;;;;;0.60;0.32;;;0.50;93.10;;;;;;4222918;28;20059;-86
2021/12/25 09:12:15;;;;;;;1.77;1.00;;;1.10;91.90;;;;;;4239931;28;20535;-85
2021/12/25 09:14:17;;;;;;;3.33;0.63;;;2.00;91.70;;;;;;4260653;27;20093;-86
2021/12/25 09:16:24;;;;;;;4.78;0.80;;;2.80;90.90;;;;;;4240115;28;20109;-86
2021/12/25 09:18:37;;;;;;;2.05;0.30;;;;;;;;;;4243165;28;20036;-86
2021/12/25 09:20:39;;;;;;;4.75;0.20;;;;;;;;;;4225484;28;20044;-86
2021/12/25 09:22:40;;;;;;;0.40;0.40;;;;;;;;;;4237672;28;20050;-85
2021/12/25 09:24:43;;;;;;;0.52;0.20;;;;;;;;;;4240666;28;20463;-85
2021/12/25 09:26:44;;;;;;;0.88;0.30;;;;;;;;;;4238875;28;20051;-85
2021/12/25 09:28:47;;;;;;;1.52;0.28;;;;;;;;;;4245466;27;20035;-85
2021/12/25 09:30:55;;;;;;;4.18;0.30;;;3.60;90.40;;;;;;4218761;28;20127;-86
2021/12/25 09:32:58;;;;;;;2.08;0.22;;;6.80;79.50;;;;;;4217227;28;20047;-86
2021/12/25 09:35:00;;;;;;;0.98;0.57;;;5.60;77.40;;;;;;4223071;28;20048;-86
2021/12/25 09:37:01;;;;;;;1.92;0.20;;;7.00;81.30;;;;;;4250551;27;20043;-86
2021/12/25 09:39:05;;;;;;;2.08;0.30;;;5.60;79.90;;;;;;4252618;27;20055;-86
2021/12/25 09:41:25;;;;;;;2.55;0.50;;;5.30;78.90;;;;;;4234507;28;20548;-86
2021/12/25 09:43:29;;;;;;;1.45;0.35;;;5.70;73.80;;;;;;4216755;28;20122;-85
2021/12/25 09:45:30;;;;;;;1.52;0.30;;;7.10;81.40;;;;;;4252530;27;20437;-86
2021/12/25 09:47:33;;;;;;;0.75;0.20;;;5.00;82.10;;;;;;4231147;28;20097;-86
2021/12/25 09:49:36;;;;;;;0.50;0.22;;;5.10;83.50;;;;;;4235104;28;20136;-86
2021/12/25 09:51:38;;;;;;;1.02;0.20;;;5.00;84.40;;;;;;4266610;27;20529;-86
2021/12/25 09:53:40;;;;;;;1.88;0.32;;;5.30;87.60;;;;;;4216986;28;20052;-87
2021/12/25 09:55:42;;;;;;;0.30;0.25;;;5.30;85.20;;;;;;4234166;28;20044;-86
2021/12/25 09:57:46;;;;;;;0.65;0.30;;;4.10;87.20;;;;;;4250793;27;20422;-85
2021/12/25 09:59:48;;;;;;;1.75;0.30;;;3.80;85.10;;;;;;4256542;27;20128;-86
2021/12/25 10:01:55;;;;;;;0.77;0.38;;;4.20;89.60;;;;;;4249542;27;20126;-85
2021/12/25 10:03:55;;;;;;;0.82;0.28;;;3.00;89.70;;;;;;4224820;28;20044;-85
2021/12/25 10:05:56;;;;;;;0.95;0.30;;;2.60;91.40;;;;;;4246499;27;20078;-85
2021/12/25 10:08:07;;;;;;;1.10;0.30;;;3.00;91.20;;;;;;4234109;28;20040;-86
2021/12/25 10:10:16;;;;;;;4.25;0.38;;;3.60;90.30;;;;;;4216874;28;20048;-85
2021/12/25 10:12:17;;;;;;;;;;;2.30;90.70;;;;;;4262818;27;20070;-85
2021/12/25 10:14:19;;;;;;;2.35;0.13;;;2.20;74.00;;;;;;4252856;27;19926;-86
2021/12/25 10:16:31;;;;;;;0.63;0.28;;;1.60;90.10;;;;;;4250986;27;20497;-84
2021/12/25 10:18:34;;;;;;;2.90;0.45;;;3.40;90.60;;;;;;4245303;27;20035;-87
2021/12/25 10:20:36;;;;;;;5.30;0.57;;;2.90;91.40;;;;;;4232521;28;20065;-86
2021/12/25 10:23:09;;;;;;;0.30;0.20;;;2.50;90.60;;;;;;4242109;27;20040;-89
2021/12/25 10:25:15;;;;;;;2.05;0.40;;;2.50;84.10;;;;;;4215022;28;20575;-91
2021/12/25 10:27:22;;;;;;;0.50;0.25;;;2.50;89.60;;;;;;4231456;28;20488;-91
2021/12/25 10:29:28;;;;;;;0.90;0.43;;;3.00;86.10;;;;;;4215072;28;20094;-89
2021/12/25 10:31:34;;;;;;;4.25;0.50;;;3.60;91.70;;;;;;4213498;28;20056;-86
2021/12/25 10:33:39;;;;;;;1.10;0.20;;;3.60;91.70;;;;;;4253354;27;20039;-86
2021/12/25 10:35:40;;;;;;;2.67;0.28;;;2.50;89.30;;;;;;4265395;27;20406;-87
2021/12/25 10:37:41;;;;;;;0.70;0.45;;;2.70;90.10;;;;;;4230334;28;20047;-86
2021/12/25 10:39:43;;;;;;;0.82;0.40;;;3.20;91.00;;;;;;4242537;28;20203;-86
2021/12/25 10:41:58;;;;;;;1.90;0.22;;;3.60;91.50;;;;;;4257127;27;20035;-86
2021/12/25 10:44:21;;;;;;;2.80;0.52;;;2.80;88.60;;;;;;4250946;28;20538;-86
2021/12/25 10:46:22;;;;;;;0.75;0.30;;;2.70;76.90;;;;;;4235709;28;20054;-86
2021/12/25 10:48:30;;;;;;;0.52;0.20;;;2.80;89.90;;;;;;4249554;28;20047;-86
2021/12/25 10:50:43;;;;;;;2.72;0.32;;;3.10;85.50;;;;;;4267066;27;20035;-86
2021/12/25 10:52:47;;;;;;;1.65;0.40;;;4.00;85.20;;;;;;4267348;27;20047;-86
2021/12/25 10:54:50;;;;;;;0.52;0.30;;;3.60;88.40;;;;;;4267574;27;20487;-86
2021/12/25 10:56:50;;;;;;;1.00;0.40;;;4.00;84.60;;;;;;4248234;28;20089;-86
2021/12/25 10:59:03;;;;;;;0.28;0.22;;;3.70;89.30;;;;;;4249886;28;20399;-86
2021/12/25 11:01:07;;;;;;;2.40;0.45;;;2.10;81.00;;;;;;4215791;28;20052;-86
2021/12/25 11:03:13;;;;;;;0.75;0.17;;;2.90;88.70;;;;;;4251044;28;20483;-86
2021/12/25 11:05:21;;;;;;;2.45;0.25;;;3.20;87.20;;;;;;4261344;27;20410;-86
2021/12/25 11:07:22;;;;;;;1.25;0.25;;;2.90;86.60;;;;;;4269504;27;20092;-86
2021/12/25 11:09:24;;;;;;;2.38;0.50;;;2.80;87.70;;;;;;4270479;27;20042;-86
2021/12/25 11:11:25;;;;;;;2.83;0.50;;;3.90;87.20;;;;;;4224571;28;20044;-87
2021/12/25 11:13:45;;;;;;;6.15;0.57;;;3.80;86.80;;;;;;4253491;27;20039;-86
2021/12/25 11:15:47;;;;;;;0.65;0.32;;;2.90;74.80;;;;;;4235688;28;20052;-86
2021/12/25 11:17:52;;;;;;;2.25;0.47;;;3.40;86.40;;;;;;4235027;28;20050;-86
2021/12/25 11:19:59;;;;;;;0.30;0.30;;;3.40;87.00;;;;;;4217635;28;20044;-86
2021/12/25 11:22:00;;;;;;;2.67;0.57;;;3.80;86.60;;;;;;4234806;28;20058;-86
2021/12/25 11:24:18;;;;;;;1.42;0.32;;;3.50;86.60;;;;;;4217622;28;20052;-86
2021/12/25 11:26:19;;;;;;;0.60;0.30;;;3.00;82.60;;;;;;4217606;28;20214;-87
2021/12/25 11:28:19;;;;;;;2.67;0.40;;;4.50;85.80;;;;;;4256331;27;20051;-86
2021/12/25 11:30:23;;;;;;;0.90;0.40;;;3.60;83.60;;;;;;4269954;27;20035;-86
2021/12/25 11:32:24;;;;;;;3.38;0.50;;;3.90;85.80;;;;;;4234850;28;20126;-87
2021/12/25 11:34:27;;;;;;;2.47;0.47;;;4.30;85.20;;;;;;4260092;27;20495;-86
2021/12/25 11:36:28;;;;;;;0.55;0.30;;;3.50;83.60;;;;;;4218505;28;20055;-86
2021/12/25 11:38:29;;;;;;;1.27;0.30;;;3.70;85.10;;;;;;4253208;27;20057;-86
2021/12/25 11:40:35;;;;;;;0.90;0.57;;;3.90;84.90;;;;;;4234125;28;20035;-86
2021/12/25 11:42:48;;;;;;;1.65;0.60;;;3.30;81.50;;;;;;4255219;27;20154;-86
2021/12/25 11:44:55;;;;;;;2.63;0.38;;;3.30;81.30;;;;;;4255279;27;20483;-86
2021/12/25 11:46:56;;;;;;;2.42;0.63;;;3.40;84.60;;;;;;4263064;27;20042;-86
2021/12/25 11:49:10;;;;;;;2.05;0.60;;;3.90;84.20;;;;;;4235836;28;20458;-86
2021/12/25 11:51:43;;;;;;;2.78;0.57;;;3.40;78.50;;;;;;4269370;27;20078;-86
2021/12/25 11:54:08;;;;;;;1.15;0.40;;;3.70;78.20;;;;;;4237392;27;20055;-86
2021/12/25 11:58:48;;;;;;;1.50;0.47;;;3.90;84.10;;;;;;4234170;28;20154;-86
2021/12/25 12:00:52;;;;;;;2.67;0.43;;;3.90;78.80;;;;;;4246736;28;20054;-86
2021/12/25 12:02:53;;;;;;;1.88;0.50;;;3.80;82.50;;;;;;4262204;27;20069;-86
2021/12/25 12:05:17;;;;;;;2.38;0.55;;;4.40;85.20;;;;;;4252218;27;20039;-87
2021/12/25 12:07:22;;;;;;;6.53;0.70;;;3.30;76.20;;;;;;4234732;28;20055;-86
2021/12/25 12:09:33;;;;;;;2.72;0.35;;;3.20;82.10;;;;;;4234239;28;20484;-86
2021/12/25 12:11:34;;;;;;;0.50;0.30;;;3.10;79.00;;;;;;4267586;27;20042;-87
2021/12/25 12:13:36;;;;;;;2.85;1.38;;;3.20;83.80;;;;;;4269508;27;20450;-86
2021/12/25 12:15:48;;;;;;;3.58;0.55;;;3.30;82.40;;;;;;4269592;27;20042;-86
2021/12/25 12:17:50;;;;;;;1.45;0.63;;;3.50;78.90;;;;;;4269677;27;20049;-86